sensor_id;sensor_type;location;lat;lon;timestamp;P1;durP1;ratioP1;P2;durP2;ratioP2
13797;SDS011;6970;51.340;3.240;2023-03-03T00:02:18;23.03;;;14.90;;
13797;SDS011;6970;51.340;3.240;2023-03-03T00:04:46;23.57;;;13.93;;
13797;SDS011;6970;51.340;3.240;2023-03-03T00:07:15;23.93;;;14.00;;
13797;SDS011;6970;51.340;3.240;2023-03-03T00:09:51;18.63;;;12.70;;
13797;SDS011;6970;51.340;3.240;2023-03-03T00:14:51;20.53;;;12.93;;
13797;SDS011;6970;51.340;3.240;2023-03-03T00:22:35;17.17;;;13.60;;
13797;SDS011;6970;51.340;3.240;2023-03-03T00:27:53;25.47;;;14.07;;
13797;SDS011;6970;51.340;3.240;2023-03-03T00:30:25;23.10;;;13.83;;
13797;SDS011;6970;51.340;3.240;2023-03-03T00:32:53;20.03;;;12.30;;
13797;SDS011;6970;51.340;3.240;2023-03-03T00:37:57;16.00;;;12.47;;
13797;SDS011;6970;51.340;3.240;2023-03-03T00:40:46;18.20;;;12.47;;
13797;SDS011;6970;51.340;3.240;2023-03-03T00:45:54;20.60;;;13.00;;
13797;SDS011;6970;51.340;3.240;2023-03-03T00:48:26;16.47;;;11.47;;
13797;SDS011;6970;51.340;3.240;2023-03-03T00:50:56;21.40;;;12.23;;
13797;SDS011;6970;51.340;3.240;2023-03-03T00:53:26;19.07;;;12.20;;
13797;SDS011;6970;51.340;3.240;2023-03-03T00:55:55;17.47;;;11.53;;
13797;SDS011;6970;51.340;3.240;2023-03-03T01:00:56;17.17;;;10.90;;
13797;SDS011;6970;51.340;3.240;2023-03-03T01:03:25;12.60;;;9.80;;
13797;SDS011;6970;51.340;3.240;2023-03-03T01:05:55;11.67;;;9.17;;
13797;SDS011;6970;51.340;3.240;2023-03-03T01:08:24;15.33;;;10.73;;
13797;SDS011;6970;51.340;3.240;2023-03-03T01:11:04;17.93;;;9.90;;
13797;SDS011;6970;51.340;3.240;2023-03-03T01:13:47;15.97;;;10.07;;
13797;SDS011;6970;51.340;3.240;2023-03-03T01:16:17;11.10;;;8.87;;
13797;SDS011;6970;51.340;3.240;2023-03-03T01:18:45;12.23;;;8.40;;
13797;SDS011;6970;51.340;3.240;2023-03-03T01:21:13;12.93;;;9.00;;
13797;SDS011;6970;51.340;3.240;2023-03-03T01:23:41;10.10;;;8.80;;
13797;SDS011;6970;51.340;3.240;2023-03-03T01:26:08;12.17;;;8.23;;
13797;SDS011;6970;51.340;3.240;2023-03-03T01:28:36;12.80;;;7.53;;
13797;SDS011;6970;51.340;3.240;2023-03-03T01:31:06;12.93;;;7.40;;
13797;SDS011;6970;51.340;3.240;2023-03-03T01:33:34;12.03;;;7.90;;
13797;SDS011;6970;51.340;3.240;2023-03-03T01:36:02;10.67;;;7.70;;
13797;SDS011;6970;51.340;3.240;2023-03-03T01:38:31;12.20;;;7.57;;
13797;SDS011;6970;51.340;3.240;2023-03-03T01:41:01;8.63;;;7.03;;
13797;SDS011;6970;51.340;3.240;2023-03-03T01:43:29;9.37;;;7.37;;
13797;SDS011;6970;51.340;3.240;2023-03-03T01:48:37;11.90;;;7.73;;
13797;SDS011;6970;51.340;3.240;2023-03-03T01:51:14;12.90;;;8.03;;
13797;SDS011;6970;51.340;3.240;2023-03-03T01:53:55;8.67;;;7.40;;
13797;SDS011;6970;51.340;3.240;2023-03-03T01:56:26;10.50;;;7.40;;
13797;SDS011;6970;51.340;3.240;2023-03-03T01:59:09;10.67;;;7.77;;
13797;SDS011;6970;51.340;3.240;2023-03-03T02:01:49;13.30;;;7.80;;
13797;SDS011;6970;51.340;3.240;2023-03-03T02:04:16;10.63;;;6.93;;
13797;SDS011;6970;51.340;3.240;2023-03-03T02:06:46;9.07;;;7.53;;
13797;SDS011;6970;51.340;3.240;2023-03-03T02:09:21;8.43;;;7.50;;
13797;SDS011;6970;51.340;3.240;2023-03-03T02:14:47;9.23;;;7.43;;
13797;SDS011;6970;51.340;3.240;2023-03-03T02:17:14;11.97;;;7.40;;
13797;SDS011;6970;51.340;3.240;2023-03-03T02:20:31;12.13;;;8.17;;
13797;SDS011;6970;51.340;3.240;2023-03-03T02:22:43;11.33;;;7.93;;
13797;SDS011;6970;51.340;3.240;2023-03-03T02:25:21;12.23;;;7.70;;
13797;SDS011;6970;51.340;3.240;2023-03-03T02:30:44;10.37;;;7.60;;
13797;SDS011;6970;51.340;3.240;2023-03-03T02:35:44;13.83;;;8.30;;
13797;SDS011;6970;51.340;3.240;2023-03-03T02:44:10;12.63;;;7.70;;
13797;SDS011;6970;51.340;3.240;2023-03-03T02:46:41;11.80;;;8.37;;
13797;SDS011;6970;51.340;3.240;2023-03-03T02:49:11;12.10;;;8.97;;
13797;SDS011;6970;51.340;3.240;2023-03-03T02:51:40;10.27;;;6.93;;
13797;SDS011;6970;51.340;3.240;2023-03-03T02:54:08;11.40;;;7.97;;
13797;SDS011;6970;51.340;3.240;2023-03-03T02:56:43;12.80;;;8.00;;
13797;SDS011;6970;51.340;3.240;2023-03-03T02:59:13;11.70;;;6.73;;
13797;SDS011;6970;51.340;3.240;2023-03-03T03:01:42;9.53;;;6.83;;
13797;SDS011;6970;51.340;3.240;2023-03-03T03:04:18;13.03;;;6.83;;
13797;SDS011;6970;51.340;3.240;2023-03-03T03:06:51;7.60;;;5.70;;
13797;SDS011;6970;51.340;3.240;2023-03-03T03:09:20;8.00;;;6.57;;
13797;SDS011;6970;51.340;3.240;2023-03-03T03:11:51;6.27;;;5.43;;
13797;SDS011;6970;51.340;3.240;2023-03-03T03:14:18;9.63;;;5.90;;
13797;SDS011;6970;51.340;3.240;2023-03-03T03:16:48;8.57;;;5.30;;
13797;SDS011;6970;51.340;3.240;2023-03-03T03:19:18;8.90;;;5.37;;
13797;SDS011;6970;51.340;3.240;2023-03-03T03:21:48;7.70;;;5.10;;
13797;SDS011;6970;51.340;3.240;2023-03-03T03:24:16;7.70;;;4.73;;
13797;SDS011;6970;51.340;3.240;2023-03-03T03:29:15;10.60;;;5.47;;
13797;SDS011;6970;51.340;3.240;2023-03-03T03:34:14;7.77;;;3.77;;
13797;SDS011;6970;51.340;3.240;2023-03-03T03:36:42;12.40;;;4.27;;
13797;SDS011;6970;51.340;3.240;2023-03-03T03:39:14;7.53;;;3.83;;
13797;SDS011;6970;51.340;3.240;2023-03-03T03:41:42;5.90;;;3.40;;
13797;SDS011;6970;51.340;3.240;2023-03-03T03:44:11;8.93;;;3.70;;
13797;SDS011;6970;51.340;3.240;2023-03-03T03:49:08;8.87;;;3.10;;
13797;SDS011;6970;51.340;3.240;2023-03-03T03:51:37;4.07;;;2.97;;
13797;SDS011;6970;51.340;3.240;2023-03-03T03:54:09;6.93;;;2.90;;
13797;SDS011;6970;51.340;3.240;2023-03-03T03:56:37;4.43;;;2.97;;
13797;SDS011;6970;51.340;3.240;2023-03-03T04:01:35;6.40;;;2.80;;
13797;SDS011;6970;51.340;3.240;2023-03-03T04:06:32;3.67;;;1.70;;
13797;SDS011;6970;51.340;3.240;2023-03-03T04:09:01;5.03;;;2.50;;
13797;SDS011;6970;51.340;3.240;2023-03-03T04:11:32;6.10;;;2.27;;
13797;SDS011;6970;51.340;3.240;2023-03-03T04:13:59;3.77;;;2.07;;
13797;SDS011;6970;51.340;3.240;2023-03-03T04:16:26;3.83;;;2.33;;
13797;SDS011;6970;51.340;3.240;2023-03-03T04:26:23;6.43;;;3.10;;
13797;SDS011;6970;51.340;3.240;2023-03-03T04:28:55;4.93;;;3.10;;
13797;SDS011;6970;51.340;3.240;2023-03-03T04:31:22;4.80;;;2.83;;
13797;SDS011;6970;51.340;3.240;2023-03-03T04:33:51;6.87;;;3.13;;
13797;SDS011;6970;51.340;3.240;2023-03-03T04:38:50;5.67;;;3.00;;
13797;SDS011;6970;51.340;3.240;2023-03-03T04:41:24;3.17;;;2.40;;
13797;SDS011;6970;51.340;3.240;2023-03-03T04:46:22;3.90;;;2.50;;
13797;SDS011;6970;51.340;3.240;2023-03-03T04:48:49;5.83;;;2.83;;
13797;SDS011;6970;51.340;3.240;2023-03-03T04:51:18;3.37;;;2.03;;
13797;SDS011;6970;51.340;3.240;2023-03-03T04:56:16;6.67;;;2.10;;
13797;SDS011;6970;51.340;3.240;2023-03-03T04:58:45;6.23;;;2.13;;
13797;SDS011;6970;51.340;3.240;2023-03-03T05:01:13;4.50;;;2.07;;
13797;SDS011;6970;51.340;3.240;2023-03-03T05:03:40;4.87;;;2.13;;
13797;SDS011;6970;51.340;3.240;2023-03-03T05:06:07;4.27;;;1.90;;
13797;SDS011;6970;51.340;3.240;2023-03-03T05:08:36;5.03;;;1.90;;
13797;SDS011;6970;51.340;3.240;2023-03-03T05:11:04;2.97;;;1.70;;
13797;SDS011;6970;51.340;3.240;2023-03-03T05:13:31;3.23;;;2.00;;
13797;SDS011;6970;51.340;3.240;2023-03-03T05:16:04;3.07;;;2.00;;
13797;SDS011;6970;51.340;3.240;2023-03-03T05:21:02;6.80;;;1.83;;
13797;SDS011;6970;51.340;3.240;2023-03-03T05:23:29;9.17;;;2.07;;
13797;SDS011;6970;51.340;3.240;2023-03-03T05:25:58;4.63;;;1.90;;
13797;SDS011;6970;51.340;3.240;2023-03-03T05:28:25;3.30;;;1.63;;
13797;SDS011;6970;51.340;3.240;2023-03-03T05:30:52;3.70;;;1.93;;
13797;SDS011;6970;51.340;3.240;2023-03-03T05:33:22;8.40;;;1.90;;
13797;SDS011;6970;51.340;3.240;2023-03-03T05:35:53;6.67;;;2.20;;
13797;SDS011;6970;51.340;3.240;2023-03-03T05:38:27;6.73;;;3.03;;
13797;SDS011;6970;51.340;3.240;2023-03-03T05:40:55;5.67;;;1.40;;
13797;SDS011;6970;51.340;3.240;2023-03-03T05:43:22;10.30;;;2.30;;
13797;SDS011;6970;51.340;3.240;2023-03-03T05:45:53;8.43;;;2.13;;
13797;SDS011;6970;51.340;3.240;2023-03-03T05:48:24;3.90;;;2.00;;
13797;SDS011;6970;51.340;3.240;2023-03-03T05:50:52;7.30;;;1.60;;
13797;SDS011;6970;51.340;3.240;2023-03-03T05:53:23;5.37;;;1.53;;
13797;SDS011;6970;51.340;3.240;2023-03-03T05:55:50;4.47;;;1.93;;
13797;SDS011;6970;51.340;3.240;2023-03-03T06:00:49;9.00;;;2.37;;
13797;SDS011;6970;51.340;3.240;2023-03-03T06:03:16;10.93;;;2.40;;
13797;SDS011;6970;51.340;3.240;2023-03-03T06:05:44;5.97;;;1.90;;
13797;SDS011;6970;51.340;3.240;2023-03-03T06:08:11;4.67;;;1.87;;
13797;SDS011;6970;51.340;3.240;2023-03-03T06:10:41;6.23;;;1.93;;
13797;SDS011;6970;51.340;3.240;2023-03-03T06:13:11;5.33;;;1.57;;
13797;SDS011;6970;51.340;3.240;2023-03-03T06:15:41;12.10;;;2.43;;
13797;SDS011;6970;51.340;3.240;2023-03-03T06:18:09;6.50;;;1.70;;
13797;SDS011;6970;51.340;3.240;2023-03-03T06:20:37;11.43;;;2.47;;
13797;SDS011;6970;51.340;3.240;2023-03-03T06:23:06;6.63;;;1.80;;
13797;SDS011;6970;51.340;3.240;2023-03-03T06:25:34;4.33;;;1.83;;
13797;SDS011;6970;51.340;3.240;2023-03-03T06:28:02;5.90;;;1.80;;
13797;SDS011;6970;51.340;3.240;2023-03-03T06:30:32;4.43;;;1.67;;
13797;SDS011;6970;51.340;3.240;2023-03-03T06:33:00;9.00;;;1.73;;
13797;SDS011;6970;51.340;3.240;2023-03-03T06:35:28;5.07;;;1.70;;
13797;SDS011;6970;51.340;3.240;2023-03-03T06:40:29;6.50;;;1.50;;
13797;SDS011;6970;51.340;3.240;2023-03-03T06:43:02;3.10;;;1.10;;
13797;SDS011;6970;51.340;3.240;2023-03-03T06:45:30;6.00;;;1.83;;
13797;SDS011;6970;51.340;3.240;2023-03-03T06:47:59;5.20;;;1.33;;
13797;SDS011;6970;51.340;3.240;2023-03-03T06:50:28;11.87;;;2.63;;
13797;SDS011;6970;51.340;3.240;2023-03-03T06:55:36;5.67;;;1.47;;
13797;SDS011;6970;51.340;3.240;2023-03-03T06:58:11;3.77;;;1.20;;
13797;SDS011;6970;51.340;3.240;2023-03-03T07:00:52;4.00;;;1.30;;
13797;SDS011;6970;51.340;3.240;2023-03-03T07:03:24;7.20;;;2.30;;
13797;SDS011;6970;51.340;3.240;2023-03-03T07:05:56;8.80;;;2.07;;
13797;SDS011;6970;51.340;3.240;2023-03-03T07:08:23;4.07;;;1.37;;
13797;SDS011;6970;51.340;3.240;2023-03-03T07:10:53;7.93;;;1.80;;
13797;SDS011;6970;51.340;3.240;2023-03-03T07:13:23;4.67;;;1.53;;
13797;SDS011;6970;51.340;3.240;2023-03-03T07:15:55;3.30;;;1.43;;
13797;SDS011;6970;51.340;3.240;2023-03-03T07:21:13;5.63;;;1.60;;
13797;SDS011;6970;51.340;3.240;2023-03-03T07:24:00;3.97;;;1.30;;
13797;SDS011;6970;51.340;3.240;2023-03-03T07:29:51;2.90;;;1.70;;
13797;SDS011;6970;51.340;3.240;2023-03-03T07:40:47;4.70;;;1.80;;
13797;SDS011;6970;51.340;3.240;2023-03-03T07:48:57;3.70;;;2.30;;
13797;SDS011;6970;51.340;3.240;2023-03-03T07:54:00;8.00;;;3.63;;
13797;SDS011;6970;51.340;3.240;2023-03-03T08:03:07;3.37;;;3.07;;
13797;SDS011;6970;51.340;3.240;2023-03-03T08:11:27;7.50;;;4.27;;
13797;SDS011;6970;51.340;3.240;2023-03-03T08:13:59;5.23;;;4.57;;
13797;SDS011;6970;51.340;3.240;2023-03-03T08:16:36;4.47;;;4.07;;
13797;SDS011;6970;51.340;3.240;2023-03-03T08:21:49;8.00;;;6.80;;
13797;SDS011;6970;51.340;3.240;2023-03-03T08:24:20;8.30;;;7.50;;
13797;SDS011;6970;51.340;3.240;2023-03-03T08:26:49;10.33;;;9.33;;
13797;SDS011;6970;51.340;3.240;2023-03-03T08:29:18;12.63;;;11.47;;
13797;SDS011;6970;51.340;3.240;2023-03-03T08:31:48;14.40;;;12.90;;
13797;SDS011;6970;51.340;3.240;2023-03-03T08:34:15;15.70;;;14.07;;
13797;SDS011;6970;51.340;3.240;2023-03-03T08:36:52;20.77;;;14.60;;
13797;SDS011;6970;51.340;3.240;2023-03-03T08:42:02;22.73;;;17.77;;
13797;SDS011;6970;51.340;3.240;2023-03-03T08:44:36;25.03;;;17.30;;
13797;SDS011;6970;51.340;3.240;2023-03-03T08:47:03;26.63;;;17.77;;
13797;SDS011;6970;51.340;3.240;2023-03-03T08:49:31;24.67;;;18.17;;
13797;SDS011;6970;51.340;3.240;2023-03-03T08:52:01;26.97;;;19.00;;
13797;SDS011;6970;51.340;3.240;2023-03-03T08:54:30;24.90;;;18.90;;
13797;SDS011;6970;51.340;3.240;2023-03-03T08:56:57;23.13;;;17.13;;
13797;SDS011;6970;51.340;3.240;2023-03-03T08:59:25;22.57;;;18.33;;
13797;SDS011;6970;51.340;3.240;2023-03-03T09:01:55;26.80;;;19.30;;
13797;SDS011;6970;51.340;3.240;2023-03-03T09:04:22;24.27;;;19.20;;
13797;SDS011;6970;51.340;3.240;2023-03-03T09:06:49;22.97;;;17.53;;
13797;SDS011;6970;51.340;3.240;2023-03-03T09:09:17;22.23;;;18.10;;
13797;SDS011;6970;51.340;3.240;2023-03-03T09:11:46;21.20;;;18.13;;
13797;SDS011;6970;51.340;3.240;2023-03-03T09:14:14;23.87;;;18.53;;
13797;SDS011;6970;51.340;3.240;2023-03-03T09:16:50;27.40;;;20.23;;
13797;SDS011;6970;51.340;3.240;2023-03-03T09:24:23;25.63;;;20.73;;
13797;SDS011;6970;51.340;3.240;2023-03-03T09:26:53;28.00;;;22.17;;
13797;SDS011;6970;51.340;3.240;2023-03-03T09:29:30;25.77;;;21.13;;
13797;SDS011;6970;51.340;3.240;2023-03-03T09:34:57;24.93;;;21.47;;
13797;SDS011;6970;51.340;3.240;2023-03-03T09:37:28;24.17;;;21.30;;
13797;SDS011;6970;51.340;3.240;2023-03-03T09:40:11;27.60;;;21.67;;
13797;SDS011;6970;51.340;3.240;2023-03-03T09:51:12;23.60;;;21.17;;
13797;SDS011;6970;51.340;3.240;2023-03-03T09:56:45;23.70;;;21.27;;
13797;SDS011;6970;51.340;3.240;2023-03-03T10:02:34;18.97;;;16.60;;
13797;SDS011;6970;51.340;3.240;2023-03-03T10:19:07;16.63;;;15.00;;
13797;SDS011;6970;51.340;3.240;2023-03-03T10:24:37;18.43;;;16.63;;
13797;SDS011;6970;51.340;3.240;2023-03-03T10:33:43;15.77;;;14.27;;
13797;SDS011;6970;51.340;3.240;2023-03-03T10:36:26;16.67;;;15.02;;
13797;SDS011;6970;51.340;3.240;2023-03-03T10:50:40;14.20;;;12.88;;
13797;SDS011;6970;51.340;3.240;2023-03-03T10:53:33;19.23;;;12.85;;
13797;SDS011;6970;51.340;3.240;2023-03-03T11:02:26;10.60;;;9.60;;
13797;SDS011;6970;51.340;3.240;2023-03-03T11:08:15;10.18;;;9.27;;
13797;SDS011;6970;51.340;3.240;2023-03-03T11:11:17;9.93;;;9.02;;
13797;SDS011;6970;51.340;3.240;2023-03-03T11:14:12;9.23;;;8.38;;
13797;SDS011;6970;51.340;3.240;2023-03-03T11:40:27;10.52;;;9.48;;
13797;SDS011;6970;51.340;3.240;2023-03-03T11:46:14;10.43;;;9.20;;
13797;SDS011;6970;51.340;3.240;2023-03-03T11:54:17;8.90;;;8.13;;
13797;SDS011;6970;51.340;3.240;2023-03-03T11:56:48;11.87;;;8.33;;
13797;SDS011;6970;51.340;3.240;2023-03-03T12:04:46;9.70;;;8.57;;
13797;SDS011;6970;51.340;3.240;2023-03-03T12:07:35;10.17;;;8.00;;
13797;SDS011;6970;51.340;3.240;2023-03-03T12:13:11;9.33;;;8.13;;
13797;SDS011;6970;51.340;3.240;2023-03-03T12:16:28;10.20;;;9.07;;
13797;SDS011;6970;51.340;3.240;2023-03-03T12:18:38;9.43;;;8.53;;
13797;SDS011;6970;51.340;3.240;2023-03-03T12:27:05;10.90;;;10.10;;
13797;SDS011;6970;51.340;3.240;2023-03-03T12:38:06;8.93;;;8.03;;
13797;SDS011;6970;51.340;3.240;2023-03-03T12:41:08;9.53;;;8.67;;
13797;SDS011;6970;51.340;3.240;2023-03-03T12:43:51;10.63;;;9.57;;
13797;SDS011;6970;51.340;3.240;2023-03-03T12:49:05;8.70;;;7.97;;
13797;SDS011;6970;51.340;3.240;2023-03-03T13:00:48;9.37;;;8.47;;
13797;SDS011;6970;51.340;3.240;2023-03-03T13:03:34;10.63;;;9.27;;
13797;SDS011;6970;51.340;3.240;2023-03-03T13:09:01;7.20;;;6.43;;
13797;SDS011;6970;51.340;3.240;2023-03-03T13:17:34;6.63;;;5.20;;
13797;SDS011;6970;51.340;3.240;2023-03-03T13:23:03;6.33;;;5.33;;
13797;SDS011;6970;51.340;3.240;2023-03-03T13:25:48;7.10;;;4.90;;
13797;SDS011;6970;51.340;3.240;2023-03-03T13:31:11;8.07;;;4.50;;
13797;SDS011;6970;51.340;3.240;2023-03-03T13:33:55;5.37;;;4.83;;
13797;SDS011;6970;51.340;3.240;2023-03-03T13:36:51;5.17;;;4.67;;
13797;SDS011;6970;51.340;3.240;2023-03-03T13:39:24;5.97;;;3.33;;
13797;SDS011;6970;51.340;3.240;2023-03-03T13:44:38;6.93;;;3.20;;
13797;SDS011;6970;51.340;3.240;2023-03-03T13:52:40;4.93;;;3.03;;
13797;SDS011;6970;51.340;3.240;2023-03-03T13:55:32;3.90;;;2.80;;
13797;SDS011;6970;51.340;3.240;2023-03-03T14:01:01;4.47;;;2.40;;
13797;SDS011;6970;51.340;3.240;2023-03-03T14:03:56;4.30;;;2.73;;
13797;SDS011;6970;51.340;3.240;2023-03-03T14:06:30;4.03;;;2.47;;
13797;SDS011;6970;51.340;3.240;2023-03-03T14:11:59;2.97;;;1.97;;
13797;SDS011;6970;51.340;3.240;2023-03-03T14:20:26;4.07;;;2.20;;
13797;SDS011;6970;51.340;3.240;2023-03-03T14:22:58;2.80;;;1.73;;
13797;SDS011;6970;51.340;3.240;2023-03-03T14:25:52;5.37;;;1.70;;
13797;SDS011;6970;51.340;3.240;2023-03-03T14:28:16;2.63;;;1.60;;
13797;SDS011;6970;51.340;3.240;2023-03-03T14:30:48;4.03;;;1.80;;
13797;SDS011;6970;51.340;3.240;2023-03-03T14:33:22;3.67;;;1.60;;
13797;SDS011;6970;51.340;3.240;2023-03-03T14:38:37;4.40;;;1.77;;
13797;SDS011;6970;51.340;3.240;2023-03-03T14:46:33;4.10;;;1.50;;
13797;SDS011;6970;51.340;3.240;2023-03-03T14:49:04;5.33;;;1.37;;
13797;SDS011;6970;51.340;3.240;2023-03-03T14:51:53;2.77;;;0.93;;
13797;SDS011;6970;51.340;3.240;2023-03-03T14:54:38;2.43;;;1.00;;
13797;SDS011;6970;51.340;3.240;2023-03-03T15:08:15;5.13;;;1.00;;
13797;SDS011;6970;51.340;3.240;2023-03-03T15:10:53;3.27;;;1.00;;
13797;SDS011;6970;51.340;3.240;2023-03-03T15:18:25;1.50;;;0.57;;
13797;SDS011;6970;51.340;3.240;2023-03-03T15:21:07;1.17;;;0.47;;
13797;SDS011;6970;51.340;3.240;2023-03-03T15:24:01;1.83;;;0.70;;
13797;SDS011;6970;51.340;3.240;2023-03-03T15:29:44;4.73;;;1.00;;
13797;SDS011;6970;51.340;3.240;2023-03-03T15:32:34;2.50;;;0.57;;
13797;SDS011;6970;51.340;3.240;2023-03-03T15:35:17;3.60;;;0.80;;
13797;SDS011;6970;51.340;3.240;2023-03-03T15:37:53;3.70;;;0.87;;
13797;SDS011;6970;51.340;3.240;2023-03-03T15:51:56;3.43;;;0.60;;
13797;SDS011;6970;51.340;3.240;2023-03-03T16:05:55;1.47;;;1.10;;
13797;SDS011;6970;51.340;3.240;2023-03-03T16:09:18;3.03;;;0.60;;
13797;SDS011;6970;51.340;3.240;2023-03-03T16:17:31;3.30;;;0.67;;
13797;SDS011;6970;51.340;3.240;2023-03-03T16:25:57;2.27;;;0.60;;
13797;SDS011;6970;51.340;3.240;2023-03-03T16:31:22;1.17;;;0.57;;
13797;SDS011;6970;51.340;3.240;2023-03-03T16:44:56;4.20;;;0.73;;
13797;SDS011;6970;51.340;3.240;2023-03-03T16:58:29;3.27;;;1.13;;
13797;SDS011;6970;51.340;3.240;2023-03-03T17:04:01;1.97;;;0.43;;
13797;SDS011;6970;51.340;3.240;2023-03-03T17:07:14;2.60;;;1.00;;
13797;SDS011;6970;51.340;3.240;2023-03-03T17:09:57;2.63;;;1.07;;
13797;SDS011;6970;51.340;3.240;2023-03-03T17:35:24;7.00;;;0.90;;
13797;SDS011;6970;51.340;3.240;2023-03-03T17:46:58;2.73;;;1.30;;
13797;SDS011;6970;51.340;3.240;2023-03-03T18:04:06;3.20;;;0.60;;
13797;SDS011;6970;51.340;3.240;2023-03-03T18:18:50;1.70;;;0.60;;
13797;SDS011;6970;51.340;3.240;2023-03-03T18:24:12;4.90;;;1.00;;
13797;SDS011;6970;51.340;3.240;2023-03-03T18:26:52;6.07;;;0.80;;
13797;SDS011;6970;51.340;3.240;2023-03-03T18:29:30;1.13;;;0.73;;
13797;SDS011;6970;51.340;3.240;2023-03-03T18:34:35;3.27;;;0.87;;
13797;SDS011;6970;51.340;3.240;2023-03-03T18:42:38;4.27;;;0.70;;
13797;SDS011;6970;51.340;3.240;2023-03-03T18:50:36;7.20;;;1.00;;
13797;SDS011;6970;51.340;3.240;2023-03-03T18:53:32;5.30;;;1.20;;
13797;SDS011;6970;51.340;3.240;2023-03-03T18:56:03;4.47;;;0.90;;
13797;SDS011;6970;51.340;3.240;2023-03-03T18:58:38;2.47;;;0.90;;
13797;SDS011;6970;51.340;3.240;2023-03-03T19:09:11;6.73;;;2.97;;
13797;SDS011;6970;51.340;3.240;2023-03-03T19:14:19;3.27;;;0.87;;
13797;SDS011;6970;51.340;3.240;2023-03-03T19:17:45;7.00;;;1.37;;
13797;SDS011;6970;51.340;3.240;2023-03-03T19:22:45;7.27;;;1.30;;
13797;SDS011;6970;51.340;3.240;2023-03-03T19:36:48;7.83;;;1.63;;
13797;SDS011;6970;51.340;3.240;2023-03-03T19:39:31;6.77;;;1.40;;
13797;SDS011;6970;51.340;3.240;2023-03-03T19:42:18;6.50;;;1.43;;
13797;SDS011;6970;51.340;3.240;2023-03-03T19:55:42;7.57;;;2.23;;
13797;SDS011;6970;51.340;3.240;2023-03-03T19:58:39;7.80;;;1.40;;
13797;SDS011;6970;51.340;3.240;2023-03-03T20:21:52;9.07;;;2.13;;
13797;SDS011;6970;51.340;3.240;2023-03-03T20:24:24;9.60;;;1.83;;
13797;SDS011;6970;51.340;3.240;2023-03-03T20:38:26;10.00;;;1.77;;
13797;SDS011;6970;51.340;3.240;2023-03-03T20:41:25;12.87;;;2.13;;
13797;SDS011;6970;51.340;3.240;2023-03-03T20:44:40;10.77;;;2.13;;
13797;SDS011;6970;51.340;3.240;2023-03-03T21:05:56;8.57;;;2.37;;
13797;SDS011;6970;51.340;3.240;2023-03-03T21:08:44;8.23;;;1.90;;
13797;SDS011;6970;51.340;3.240;2023-03-03T21:13:58;6.27;;;2.03;;
13797;SDS011;6970;51.340;3.240;2023-03-03T21:19:11;8.07;;;2.47;;
13797;SDS011;6970;51.340;3.240;2023-03-03T21:21:51;7.33;;;1.83;;
13797;SDS011;6970;51.340;3.240;2023-03-03T21:24:19;13.27;;;2.20;;
13797;SDS011;6970;51.340;3.240;2023-03-03T21:29:25;7.93;;;1.67;;
13797;SDS011;6970;51.340;3.240;2023-03-03T21:31:56;18.10;;;3.10;;
13797;SDS011;6970;51.340;3.240;2023-03-03T21:34:25;8.40;;;2.20;;
13797;SDS011;6970;51.340;3.240;2023-03-03T21:36:58;9.77;;;2.00;;
13797;SDS011;6970;51.340;3.240;2023-03-03T21:39:32;15.60;;;2.33;;
13797;SDS011;6970;51.340;3.240;2023-03-03T21:42:16;10.77;;;2.63;;
13797;SDS011;6970;51.340;3.240;2023-03-03T21:44:54;6.77;;;1.63;;
13797;SDS011;6970;51.340;3.240;2023-03-03T21:47:22;9.53;;;1.80;;
13797;SDS011;6970;51.340;3.240;2023-03-03T21:49:54;12.70;;;2.00;;
13797;SDS011;6970;51.340;3.240;2023-03-03T21:52:21;12.77;;;2.13;;
13797;SDS011;6970;51.340;3.240;2023-03-03T21:54:49;10.53;;;2.07;;
13797;SDS011;6970;51.340;3.240;2023-03-03T21:57:19;9.87;;;2.03;;
13797;SDS011;6970;51.340;3.240;2023-03-03T21:59:47;10.50;;;2.17;;
13797;SDS011;6970;51.340;3.240;2023-03-03T22:02:20;11.97;;;3.63;;
13797;SDS011;6970;51.340;3.240;2023-03-03T22:04:48;5.50;;;1.73;;
13797;SDS011;6970;51.340;3.240;2023-03-03T22:07:17;5.60;;;1.97;;
13797;SDS011;6970;51.340;3.240;2023-03-03T22:09:44;13.10;;;1.97;;
13797;SDS011;6970;51.340;3.240;2023-03-03T22:12:14;8.07;;;1.77;;
13797;SDS011;6970;51.340;3.240;2023-03-03T22:14:41;10.57;;;2.17;;
13797;SDS011;6970;51.340;3.240;2023-03-03T22:17:10;12.43;;;2.60;;
13797;SDS011;6970;51.340;3.240;2023-03-03T22:22:08;16.43;;;2.80;;
13797;SDS011;6970;51.340;3.240;2023-03-03T22:24:35;7.83;;;3.30;;
13797;SDS011;6970;51.340;3.240;2023-03-03T22:27:02;10.77;;;2.33;;
13797;SDS011;6970;51.340;3.240;2023-03-03T22:29:29;10.00;;;2.27;;
13797;SDS011;6970;51.340;3.240;2023-03-03T22:31:57;6.77;;;2.23;;
13797;SDS011;6970;51.340;3.240;2023-03-03T22:34:24;11.57;;;2.50;;
13797;SDS011;6970;51.340;3.240;2023-03-03T22:36:51;12.80;;;2.23;;
13797;SDS011;6970;51.340;3.240;2023-03-03T22:39:18;10.10;;;2.27;;
13797;SDS011;6970;51.340;3.240;2023-03-03T22:41:59;8.27;;;2.00;;
13797;SDS011;6970;51.340;3.240;2023-03-03T22:44:26;6.83;;;1.97;;
13797;SDS011;6970;51.340;3.240;2023-03-03T22:46:53;13.33;;;2.43;;
13797;SDS011;6970;51.340;3.240;2023-03-03T22:49:21;10.30;;;2.17;;
13797;SDS011;6970;51.340;3.240;2023-03-03T22:51:48;7.90;;;1.50;;
13797;SDS011;6970;51.340;3.240;2023-03-03T22:54:15;11.40;;;2.30;;
13797;SDS011;6970;51.340;3.240;2023-03-03T22:59:14;10.77;;;2.47;;
13797;SDS011;6970;51.340;3.240;2023-03-03T23:01:44;9.73;;;2.50;;
13797;SDS011;6970;51.340;3.240;2023-03-03T23:04:11;12.80;;;2.13;;
13797;SDS011;6970;51.340;3.240;2023-03-03T23:06:38;8.00;;;1.90;;
13797;SDS011;6970;51.340;3.240;2023-03-03T23:09:06;12.03;;;2.63;;
13797;SDS011;6970;51.340;3.240;2023-03-03T23:11:33;9.03;;;2.00;;
13797;SDS011;6970;51.340;3.240;2023-03-03T23:14:00;9.40;;;2.73;;
13797;SDS011;6970;51.340;3.240;2023-03-03T23:16:29;11.03;;;2.10;;
13797;SDS011;6970;51.340;3.240;2023-03-03T23:18:59;13.17;;;2.57;;
13797;SDS011;6970;51.340;3.240;2023-03-03T23:21:27;16.20;;;2.03;;
13797;SDS011;6970;51.340;3.240;2023-03-03T23:23:57;17.27;;;3.33;;
13797;SDS011;6970;51.340;3.240;2023-03-03T23:26:28;16.17;;;2.50;;
13797;SDS011;6970;51.340;3.240;2023-03-03T23:31:26;11.07;;;1.90;;
13797;SDS011;6970;51.340;3.240;2023-03-03T23:34:01;12.27;;;2.20;;
13797;SDS011;6970;51.340;3.240;2023-03-03T23:36:35;23.83;;;2.70;;
13797;SDS011;6970;51.340;3.240;2023-03-03T23:39:04;10.90;;;1.80;;
13797;SDS011;6970;51.340;3.240;2023-03-03T23:41:34;12.70;;;1.90;;
13797;SDS011;6970;51.340;3.240;2023-03-03T23:44:03;11.77;;;2.10;;
13797;SDS011;6970;51.340;3.240;2023-03-03T23:46:31;16.13;;;2.63;;
13797;SDS011;6970;51.340;3.240;2023-03-03T23:48:58;10.47;;;2.23;;
13797;SDS011;6970;51.340;3.240;2023-03-03T23:51:30;14.47;;;2.90;;
13797;SDS011;6970;51.340;3.240;2023-03-03T23:54:01;13.37;;;1.83;;
13797;SDS011;6970;51.340;3.240;2023-03-03T23:56:30;10.73;;;1.63;;
13797;SDS011;6970;51.340;3.240;2023-03-03T23:58:59;7.80;;;2.17;;
